• Join FlightAware (Why Join?)
  • Login
  • US Flag 
08:07PM EDT


 

Airport Tracker/Info


-or-


 

Live Flight TrackerFlight Track Log ✈ N860BA ✈ 29-Jun-2013 ✈ KOAK - KPWM

Flight Track Log - Related Links

Times and Time Zones

All times are in EDT time to prevent confusion due to time zone crossing. See the N860BA flight status page for this flight to view local times or setup timezone preferences in your user account.

Time Position Orientation Groundspeed Altitude Reporting Facility
EDT Latitude Longitude Course Direction KTS MPH feet Rate Location/Type
11:15AM 37.7500 -122.2833 28° Northeast 169 194 2,500  Level Northern Cal TRACON
11:16AM 37.7667 -122.3167 302° West 182 209 4,400 1,620 Climbing Northern Cal TRACON
11:18AM 37.8500 -122.3469 344° North 218 251 7,300 1,380 Climbing Oakland Center
11:19AM 37.9036 -122.2736 47° Northeast 277 319 8,500 1,140 Climbing Oakland Center
11:20AM 38.3318 -121.6454 28° Northeast  Level FlightAware Approximate
11:20AM 37.9681 -122.1931 45° Northeast 317 365 9,700  Level Oakland Center
11:21AM 38.0389 -122.0992 46° Northeast 362 417 10,900 1,200 Climbing Oakland Center
11:22AM 38.1286 -121.9794 46° Northeast 392 451 12,200 1,260 Climbing Oakland Center
11:23AM 38.2067 -121.8742 47° Northeast 409 471 13,600 1,320 Climbing Oakland Center
11:24AM 38.2847 -121.7681 47° Northeast 412 474 14,900 1,260 Climbing Oakland Center
11:25AM 38.3636 -121.6622 46° Northeast 414 476 16,300 1,380 Climbing Oakland Center
11:26AM 38.4483 -121.5458 47° Northeast 416 479 17,800 1,320 Climbing Oakland Center
11:27AM 38.5131 -121.4356 53° Northeast 420 483 19,100 1,260 Climbing Oakland Center
11:29AM 38.6542 -121.1922 53° Northeast 432 497 21,800 1,380 Climbing Oakland Center
11:30AM 38.7364 -121.0492 54° Northeast 428 493 23,400 1,440 Climbing Oakland Center
11:31AM 38.8075 -120.9261 53° Northeast 428 493 24,800 1,260 Climbing Oakland Center
11:32AM 38.8781 -120.8031 54° Northeast 427 491 26,100 1,020 Climbing Oakland Center
11:33AM 38.9494 -120.6817 53° Northeast 426 490 27,000 660 Climbing Oakland Center
11:34AM 39.0236 -120.5519 54° Northeast 444 511 27,500 480 Climbing Oakland Center
11:35AM 39.1000 -120.4197 53° Northeast 458 527 28,000 480 Climbing Oakland Center
11:36AM 39.1781 -120.2831 54° Northeast 471 542 28,500 480 Climbing Oakland Center
11:37AM 39.2564 -120.1456 54° Northeast 474 545 29,000 540 Climbing Oakland Center
11:38AM 39.3519 -119.9811 53° Northeast 485 558 29,600 540 Climbing Oakland Center
11:39AM 39.4308 -119.8406 54° Northeast 482 555 30,100 480 Climbing Oakland Center
11:40AM 39.5103 -119.6978 54° Northeast 485 558 30,600 420 Climbing Oakland Center
11:41AM 39.5900 -119.5547 54° Northeast 486 559 31,000 360 Climbing Oakland Center
11:42AM 39.6697 -119.4106 54° Northeast 488 562 31,400 360 Climbing Oakland Center
11:43AM 39.7503 -119.2675 54° Northeast 488 562 31,800 360 Climbing Oakland Center
11:44AM 39.8294 -119.1211 55° Northeast 490 564 32,200 360 Climbing Oakland Center
11:45AM 39.9100 -118.9756 54° Northeast 491 565 32,600 360 Climbing Oakland Center
11:46AM 39.9892 -118.8286 55° Northeast 492 566 33,000 180 Climbing Oakland Center
11:47AM 40.0686 -118.6833 54° Northeast 491 565 33,000  Level Oakland Center
11:48AM 40.1394 -118.5269 59° Northeast 500 575 33,000  Level Oakland Center
11:49AM 40.1867 -118.3561 70° East 497 572 33,000  Level Oakland Center
11:50AM 40.2422 -118.1522 70° East 495 570 33,000  Level Oakland Center
11:51AM 40.2822 -118.0064 70° East 493 567 33,000  Level Oakland Center
11:52AM 40.3331 -117.8164 71° East 494 568 33,000  Level Oakland Center
11:53AM 40.3775 -117.6556 70° East 491 565 33,000  Level Oakland Center
11:54AM 40.4275 -117.4658 71° East 492 566 33,000  Level Oakland Center
11:56AM 40.4706 -117.3036 71° East 490 564 33,000  Level Oakland Center
11:57AM 40.5142 -117.1403 71° East 491 565 33,000  Level Oakland Center
11:58AM 40.5667 -116.9453 70° East 498 573 33,000  Level Oakland Center
11:59AM 40.6239 -116.7236 71° East 493 567 33,000  Level Salt Lake Center
12:00PM 40.6686 -116.5589 70° East 494 568 33,000  Level Salt Lake Center
12:01PM 40.7197 -116.3667 71° East 496 571 33,000  Level Salt Lake Center
12:02PM 40.7642 -116.2044 70° East 494 568 33,000  Level Salt Lake Center
12:03PM 40.8158 -116.0108 71° East 498 573 33,000  Level Salt Lake Center
12:04PM 40.8583 -115.8461 71° East 496 571 33,000  Level Salt Lake Center
12:05PM 40.9097 -115.6517 71° East 500 575 33,000  Level Salt Lake Center
12:06PM 40.9533 -115.4850 71° East 501 577 33,000  Level Salt Lake Center
12:07PM 41.0033 -115.2878 71° East 505 581 33,000  Level Salt Lake Center
12:08PM 41.0464 -115.1206 71° East 503 579 33,000  Level Salt Lake Center
12:09PM 41.0953 -114.9253 72° East 500 575 33,000  Level Salt Lake Center
12:10PM 41.1369 -114.7608 71° East 500 575 33,000  Level Salt Lake Center
12:11PM 41.1800 -114.5878 72° East 497 572 33,000  Level Salt Lake Center
12:12PM 41.2231 -114.4142 72° East 496 571 33,000  Level Salt Lake Center
12:13PM 41.2750 -114.2047 72° East 498 573 33,000  Level Salt Lake Center
12:14PM 41.3172 -114.0300 72° East 497 572 33,000  Level Salt Lake Center
12:15PM 41.3594 -113.8544 72° East 498 573 33,000  Level Salt Lake Center
12:17PM 41.3875 -113.6731 78° East 500 575 33,000  Level Salt Lake Center
12:18PM 41.4081 -113.4911 81° East 499 574 33,000  Level Salt Lake Center
12:19PM 41.4306 -113.3122 80° East 494 568 33,000  Level Salt Lake Center
12:20PM 41.4528 -113.1317 81° East 494 568 33,000  Level Salt Lake Center
12:21PM 41.4803 -112.9142 80° East 495 570 33,000  Level Salt Lake Center
12:22PM 41.5017 -112.7333 81° East 495 570 33,000  Level Salt Lake Center
12:23PM 41.5236 -112.5508 81° East 497 572 33,000  Level Salt Lake Center
12:24PM 41.5433 -112.3672 82° East 499 574 33,000  Level Salt Lake Center
12:25PM 41.5628 -112.1833 82° East 499 574 33,000  Level Salt Lake Center
12:26PM 41.5825 -111.9997 82° East 498 573 33,000  Level Salt Lake Center
12:27PM 41.6011 -111.8153 82° East 497 572 33,000  Level Salt Lake Center
12:28PM 41.6233 -111.5936 82° East 499 574 33,000  Level Salt Lake Center
12:29PM 41.6419 -111.4083 82° East 501 577 33,000  Level Salt Lake Center
12:30PM 41.6592 -111.2244 83° East 499 574 33,000  Level Salt Lake Center
12:31PM 41.6769 -111.0397 83° East 500 575 33,000  Level Salt Lake Center
12:32PM 41.6953 -110.8386 83° East 503 579 33,000  Level Salt Lake Center
12:33PM 41.7100 -110.6625 84° East 499 574 33,000  Level Salt Lake Center
12:34PM 41.7289 -110.4558 83° East 501 577 33,000  Level Salt Lake Center
12:35PM 41.7447 -110.2794 83° East 499 574 33,000  Level Salt Lake Center
12:36PM 41.7622 -110.0739 83° East 497 572 33,000  Level Salt Lake Center
12:37PM 41.7775 -109.8972 83° East 498 573 33,000  Level Salt Lake Center
12:38PM 41.7931 -109.7217 83° East 495 570 33,000  Level Salt Lake Center
12:39PM 41.8094 -109.5161 84° East 496 571 33,000  Level Salt Lake Center
12:40PM 41.8242 -109.3392 84° East 496 571 33,000  Level Salt Lake Center
12:41PM 41.8408 -109.1308 84° East 498 573 33,000  Level Salt Lake Center
12:42PM 41.8542 -108.9550 84° East 494 568 33,000  Level Salt Lake Center
12:43PM 41.8692 -108.7497 84° East 492 566 33,000  Level Salt Lake Center
12:44PM 41.8825 -108.5744 84° East 490 564 33,000  Level Salt Lake Center
12:45PM 41.8950 -108.3981 85° East 494 568 33,000  Level Salt Lake Center
12:46PM 41.9092 -108.1933 85° East 495 570 33,000  Level Salt Lake Center
12:48PM 41.9200 -108.0161 85° East 496 571 33,000  Level Salt Lake Center
12:49PM 41.9344 -107.8097 85° East 496 571 33,000  Level Salt Lake Center
12:49PM 41.9389 -107.7206 86° East 493 567 33,000  Level Denver Center
12:50PM 41.9539 -107.4864 85° East 492 566 33,000  Level Denver Center
12:51PM 41.9644 -107.3111 85° East 491 565 33,000  Level Denver Center
12:52PM 41.9775 -107.1061 85° East 493 567 33,000  Level Denver Center
12:53PM 41.9878 -106.9325 85° East 489 563 33,000  Level Denver Center
12:54PM 41.9994 -106.7278 86° East 493 567 33,000  Level Denver Center
12:56PM 42.0094 -106.5528 86° East 490 564 33,000  Level Denver Center
12:57PM 42.0200 -106.3558 86° East 491 565 33,000  Level Denver Center
12:58PM 42.0275 -106.1797 87° East 492 566 33,000 240 Level Denver Center
12:59PM 42.0394 -105.9744 85° East 495 570 33,500 480 Climbing Denver Center
01:00PM 42.0469 -105.7992 87° East 491 565 34,000 480 Climbing Denver Center
01:01PM 42.0567 -105.5942 86° East 492 566 34,600 480 Climbing Denver Center
01:02PM 42.0647 -105.4219 86° East 486 559 35,000 180 Climbing Denver Center
01:03PM 42.0719 -105.2169 87° East 490 564 35,000  Level Denver Center
01:04PM 42.0856 -105.0425 84° East 490 564 35,000  Level Denver Center
01:05PM 42.1033 -104.8414 83° East 489 563 35,000  Level Denver Center
01:06PM 42.1167 -104.6736 84° East 475 547 35,000  Level Denver Center
01:07PM 42.1336 -104.4742 83° East 483 556 35,000  Level Denver Center
01:08PM 42.1475 -104.3017 84° East 487 560 35,000 60 Level Denver Center
01:09PM 42.1642 -104.0978 84° East 491 565 35,200 300 Climbing Denver Center
01:10PM 42.1831 -103.8658 84° East 491 565 35,700 420 Climbing Denver Center
01:11PM 42.1961 -103.6933 84° East 488 562 36,200 480 Climbing Denver Center
01:12PM 42.2111 -103.4947 84° East 481 554 36,800 360 Climbing Denver Center
01:13PM 42.2244 -103.3231 84° East 480 552 37,000 60 Climbing Denver Center
01:14PM 42.2386 -103.1200 85° East 488 562 37,000  Level Denver Center
01:15PM 42.2508 -102.9447 85° East 490 564 37,000  Level Denver Center
01:16PM 42.2672 -102.7400 84° East 494 568 37,000  Level Denver Center
01:17PM 42.2775 -102.5633 85° East 495 570 37,000  Level Denver Center
01:18PM 42.2928 -102.3583 84° East 493 567 37,000  Level Denver Center
01:20PM 42.3031 -102.1811 85° East 496 571 37,000  Level Denver Center
01:21PM 42.3142 -102.0047 85° East 493 567 37,000  Level Denver Center
01:22PM 42.3294 -101.7633 85° East 495 570 37,000  Level Denver Center
01:23PM 42.3408 -101.5569 86° East 492 566 37,000  Level Denver Center
01:24PM 42.3514 -101.3778 85° East 497 572 37,000  Level Denver Center
01:25PM 42.3614 -101.2000 86° East 497 572 37,000  Level Denver Center
01:26PM 42.3719 -100.9939 86° East 493 567 37,000  Level Denver Center
01:27PM 42.3811 -100.8175 86° East 491 565 37,000  Level Denver Center
01:28PM 42.3906 -100.6142 86° East 490 564 37,000  Level Minneapolis Center
01:29PM 42.4000 -100.4294 86° East 491 565 37,000  Level Minneapolis Center
01:30PM 42.4106 -100.2419 86° East 494 568 37,000  Level Minneapolis Center
01:31PM 42.4194 -100.0589 86° East 493 567 37,000  Level Minneapolis Center
01:32PM 42.4267 -99.8775 87° East 490 564 37,000  Level Minneapolis Center
01:33PM 42.4322 -99.7003 88° East 480 552 37,000  Level Minneapolis Center
01:34PM 42.4417 -99.4831 87° East 480 552 37,000  Level Minneapolis Center
01:35PM 42.4497 -99.3014 86° East 482 555 37,000  Level Minneapolis Center
01:36PM 42.4561 -99.1186 87° East 484 557 37,000  Level Minneapolis Center
01:37PM 42.4633 -98.9358 87° East 485 558 37,000  Level Minneapolis Center
01:38PM 42.4694 -98.7533 87° East 484 557 37,000  Level Minneapolis Center
01:39PM 42.4861 -98.5744 83° East 477 549 37,000  Level Minneapolis Center
01:40PM 42.5111 -98.3992 79° East 473 544 37,000  Level Minneapolis Center
01:41PM 42.5406 -98.1889 79° East 473 544 37,000  Level Minneapolis Center
01:42PM 42.5644 -98.0125 80° East 475 547 37,000  Level Minneapolis Center
01:43PM 42.5875 -97.8353 80° East 476 548 37,000  Level Minneapolis Center
01:45PM 42.6111 -97.6656 79° East 473 544 37,000  Level Minneapolis Center
01:46PM 42.6336 -97.4886 80° East 474 545 37,000  Level Minneapolis Center
01:47PM 42.6558 -97.3128 80° East 473 544 37,000 240 Level Minneapolis Center
01:48PM 42.6836 -97.1028 80° East 470 541 37,500 420 Climbing Minneapolis Center
01:49PM 42.7036 -96.9394 80° East 470 541 37,900 420 Climbing Minneapolis Center
01:50PM 42.7253 -96.7667 80° East 466 536 38,400 420 Climbing Minneapolis Center
01:51PM 42.7461 -96.5928 81° East 468 539 38,800 240 Climbing Minneapolis Center
01:52PM 42.7711 -96.3892 80° East 460 529 39,000 60 Climbing Minneapolis Center
01:53PM 42.7919 -96.2169 81° East 463 533 39,000  Level Minneapolis Center
01:54PM 42.8119 -96.0433 81° East 466 536 39,000  Level Minneapolis Center
01:55PM 42.8319 -95.8719 81° East 462 532 39,000  Level Minneapolis Center
01:56PM 42.8517 -95.6981 81° East 466 536 39,000  Level Minneapolis Center
01:57PM 42.8750 -95.4914 81° East 465 535 39,000  Level Minneapolis Center
01:58PM 42.8942 -95.3183 81° East 465 535 39,000  Level Minneapolis Center
01:59PM 42.9139 -95.1444 81° East 466 536 39,000  Level Minneapolis Center
02:00PM 42.9325 -94.9714 82° East 465 535 39,000  Level Minneapolis Center
02:01PM 42.9508 -94.7969 82° East 466 536 39,000  Level Minneapolis Center
02:02PM 42.9717 -94.5969 82° East 464 534 39,000  Level Minneapolis Center
02:03PM 42.9875 -94.4411 82° East 467 537 39,000  Level Minneapolis Center
02:04PM 43.0089 -94.2322 82° East 466 536 39,000  Level Minneapolis Center
02:05PM 43.0269 -94.0583 82° East 468 539 39,000  Level Minneapolis Center
02:06PM 43.0442 -93.8847 82° East 465 535 39,000  Level Minneapolis Center
02:07PM 43.0603 -93.7103 83° East 467 537 39,000  Level Minneapolis Center
02:08PM 43.0764 -93.5364 83° East 465 535 39,000  Level Minneapolis Center
02:09PM 43.0953 -93.3289 83° East 463 533 39,000  Level Minneapolis Center
02:10PM 43.1011 -93.1542 87° East 464 534 39,000  Level Minneapolis Center
02:11PM 43.1044 -92.9794 88° East 464 534 39,000  Level Minneapolis Center
02:12PM 43.1075 -92.8056 89° East 463 533 39,000  Level Minneapolis Center
02:13PM 43.1111 -92.6339 88° East 457 526 39,000  Level Minneapolis Center
02:15PM 43.1150 -92.4272 88° East 457 526 39,000  Level Minneapolis Center
02:16PM 43.1158 -92.2558 90° East 456 525 39,000  Level Chicago Center
02:17PM 43.1194 -92.0822 88° East 458 527 39,000  Level Chicago Center
02:18PM 43.1244 -91.9069 88° East 460 529 39,000  Level Minneapolis Center
02:19PM 43.1281 -91.7306 88° East 461 531 39,000  Level Minneapolis Center
02:20PM 43.1289 -91.5558 90° East 460 529 39,000  Level Minneapolis Center
02:21PM 43.1311 -91.3450 89° East 460 529 39,000  Level Minneapolis Center
02:22PM 43.1325 -91.1725 89° East 458 527 39,000  Level Chicago Center
02:23PM 43.1344 -90.9972 89° East 462 532 39,000  Level Chicago Center
02:24PM 43.1350 -90.8244 90° East 458 527 39,000  Level Chicago Center
02:25PM 43.1350 -90.6508 90° East 458 527 39,000  Level Chicago Center
02:26PM 43.1361 -90.4772 89° East 458 527 39,000  Level Chicago Center
02:27PM 43.1350 -90.2686 90° East 454 522 39,000  Level Chicago Center
02:28PM 43.1347 -90.0953 90° East 455 524 39,000  Level Chicago Center
02:29PM 43.1339 -89.9228 90° East 455 524 39,000  Level Chicago Center
02:30PM 43.1342 -89.7514 90° East 453 521 39,000  Level Chicago Center
02:31PM 43.1325 -89.5786 91° East 453 521 39,000  Level Chicago Center
02:32PM 43.1317 -89.4053 90° East 456 525 39,000  Level Chicago Center
02:33PM 43.1297 -89.2047 91° East 455 524 39,000  Level Chicago Center
02:34PM 43.1275 -89.0306 91° East 459 528 39,000  Level Chicago Center
02:35PM 43.1256 -88.8583 91° East 456 525 39,000  Level Chicago Center
02:36PM 43.1228 -88.6853 91° East 458 527 39,000  Level Chicago Center
02:37PM 43.1200 -88.5117 91° East 460 529 39,000  Level Chicago Center
02:38PM 43.1175 -88.3094 91° East 461 531 39,000  Level Chicago Center
02:39PM 43.1236 -88.1358 87° East 461 531 39,000  Level Chicago Center
02:40PM 43.1317 -87.9633 86° East 458 527 39,000  Level Chicago Center
02:41PM 43.1406 -87.7900 86° East 457 526 39,000  Level Chicago Center
02:42PM 43.1481 -87.6156 87° East 460 529 39,000  Level Chicago Center
02:43PM 43.1556 -87.4422 87° East 458 527 39,000  Level Chicago Center
02:44PM 43.1642 -87.2456 86° East 458 527 39,000  Level Chicago Center
02:45PM 43.1711 -87.0706 87° East 460 529 39,000  Level Chicago Center
02:46PM 43.1769 -86.8967 87° East 460 529 39,000  Level Chicago Center
02:47PM 43.1856 -86.7208 86° East 462 532 39,000  Level Chicago Center
02:49PM 43.1914 -86.5444 87° East 463 533 39,000  Level Chicago Center
02:50PM 43.1975 -86.3683 87° East 461 531 39,000  Level Chicago Center
02:51PM 43.2033 -86.1908 87° East 463 533 39,000  Level Chicago Center
02:52PM 43.2086 -86.0089 88° East 467 537 39,000  Level Chicago Center
02:53PM 43.2142 -85.7911 88° East 467 537 39,000  Level Chicago Center
02:54PM 43.2194 -85.6125 88° East 467 537 39,000  Level Chicago Center
02:55PM 43.2228 -85.4358 88° East 464 534 39,000  Level Chicago Center
02:56PM 43.2272 -85.2581 88° East 465 535 39,000  Level Chicago Center
02:57PM 43.2317 -85.0817 88° East 463 533 39,000  Level Chicago Center
02:58PM 43.2347 -84.9022 89° East 469 540 39,000  Level Chicago Center
02:59PM 43.2386 -84.7242 88° East 469 540 39,000  Level Chicago Center
03:00PM 43.2408 -84.5456 89° East 468 539 39,000  Level Chicago Center
03:01PM 43.2447 -84.3319 88° East 468 539 39,000  Level Chicago Center
03:02PM 43.2475 -84.1536 89° East 468 539 39,000  Level Chicago Center
03:03PM 43.2506 -83.9772 89° East 466 536 39,000  Level Chicago Center
03:04PM 43.2522 -83.7992 89° East 466 536 39,000  Level Chicago Center
03:05PM 43.2542 -83.6222 89° East 466 536 39,000  Level Chicago Center
03:06PM 43.2550 -83.4139 90° East 460 529 39,000  Level Cleveland Center
03:07PM 43.2550 -83.2342 90° East 460 529 39,000  Level Cleveland Center
03:08PM 43.2547 -83.0575 90° East 460 529 39,000  Level Cleveland Center
03:09PM 43.2542 -82.8806 90° East 460 529 39,000  Level Cleveland Center
03:10PM 43.2553 -82.7211 89° East 460 529 39,000  Level Cleveland Center
03:11PM 43.2522 -82.5414 91° East 460 529 39,000  Level Cleveland Center
03:12PM 43.2167 -82.3500 104° East 460 529 39,000  Level Toronto Center
03:13PM 43.2167 -82.1667 90° East 460 529 39,000  Level Toronto Center
03:14PM 43.2167 -81.9833 90° East 460 529 39,000  Level Toronto Center
03:15PM 43.2333 -81.8333 81° East 460 529 39,000  Level Toronto Center
03:16PM 43.2333 -81.6500 90° East 460 529 39,000  Level Toronto Center
03:17PM 43.2333 -81.4667 90° East 470 541 39,000  Level Toronto Center
03:18PM 43.2333 -81.3000 90° East 470 541 39,000  Level Toronto Center
03:19PM 43.2167 -81.1167 97° East 470 541 39,000  Level Toronto Center
03:20PM 43.2167 -80.9333 90° East 470 541 39,000  Level Toronto Center
03:21PM 43.2333 -80.7500 83° East 470 541 39,000  Level Toronto Center
03:22PM 43.2333 -80.5667 90° East 470 541 39,100 360 Climbing Toronto Center
03:23PM 43.2333 -80.3833 90° East 470 541 39,800 600 Climbing Toronto Center
03:24PM 43.2333 -80.2000 90° East 470 541 40,400 600 Climbing Toronto Center
03:25PM 43.2333 -80.0500 90° East 470 541 41,000 300 Climbing Toronto Center
03:26PM 43.2333 -79.8667 90° East 470 541 41,000  Level Toronto Center
03:27PM 43.2333 -79.6833 90° East 480 552 41,000  Level Toronto Center
03:28PM 43.2333 -79.5000 90° East 480 552 41,000  Level Toronto Center
03:29PM 43.2333 -79.3167 90° East 490 564 41,000  Level Toronto Center
03:30PM 43.2333 -79.1333 90° East 490 564 41,000  Level Toronto Center
03:31PM 43.2167 -78.9167 96° East 490 564 41,000  Level Toronto Center
03:32PM 43.2167 -78.7667 90° East 490 564 41,000  Level Toronto Center
03:33PM 43.2167 -78.5500 90° East 490 564 41,000  Level Toronto Center
03:34PM 43.2000 -78.3833 98° East 490 564 41,000  Level Toronto Center
03:35PM 43.2000 -78.2000 90° East 490 564 41,000  Level Toronto Center
03:36PM 43.2000 -78.0167 90° East 490 564 41,000  Level Toronto Center
03:37PM 43.2000 -77.8333 90° East 490 564 41,000  Level Toronto Center
03:38PM 43.2000 -77.6167 90° East 490 564 41,000  Level Toronto Center
03:39PM 43.2000 -77.4667 90° East 490 564 41,000  Level Toronto Center
03:40PM 43.1667 -77.2500 102° East 490 564 41,000  Level Toronto Center
03:41PM 43.1667 -77.0667 90° East 490 564 41,000  Level Toronto Center
03:42PM 43.1667 -76.8833 90° East 490 564 41,000  Level Toronto Center
03:43PM 43.2000 -76.7000 76° East 500 575 41,000  Level Toronto Center
03:44PM 43.2000 -76.5167 90° East 500 575 41,000 -60 Level Toronto Center
03:45PM 43.2261 -76.3328 79° East 495 570 40,900 -60 Descending Boston Center
03:46PM 43.2364 -76.1425 86° East 495 570 40,900  Level Boston Center
03:47PM 43.2508 -75.9525 84° East 495 570 40,900  Level Boston Center
03:48PM 43.2628 -75.7619 85° East 495 570 40,900  Level Boston Center
03:49PM 43.2744 -75.5714 85° East 495 570 40,900  Level Boston Center
03:50PM 43.2858 -75.3781 85° East 500 575 40,900  Level Boston Center
03:51PM 43.2969 -75.1875 85° East 500 575 41,000  Climbing Boston Center
03:52PM 43.3072 -75.0081 85° East 510 587 40,900 -60 Descending Boston Center
03:53PM 43.3175 -74.8200 86° East 505 581 40,900  Level Boston Center
03:54PM 43.3275 -74.6322 86° East 499 574 40,900  Level Boston Center
03:55PM 43.3375 -74.4383 86° East 499 574 40,900  Level Boston Center
03:56PM 43.3469 -74.2444 86° East 499 574 40,900  Level Boston Center
03:57PM 43.3581 -74.0506 85° East 499 574 40,900 -900 Level Boston Center
03:58PM 43.3669 -73.8625 86° East 499 574 39,200 -1,920 Descending Boston Center
03:59PM 43.3756 -73.6425 87° East 510 587 37,100 -2,040 Descending Boston Center
04:00PM 43.3861 -73.4372 86° East 524 603 35,200 -1,860 Descending Boston Center
04:01PM 43.3978 -73.2544 85° East 529 609 33,400 -2,280 Descending Boston Center
04:02PM 43.4033 -73.0289 88° East 529 609 30,700 -2,460 Descending Boston Center
04:03PM 43.4147 -72.8517 85° East 536 617 28,500 -2,400 Descending Boston Center
04:04PM 43.4214 -72.6572 87° East 525 604 26,000 -2,460 Descending Boston Center
04:05PM 43.4258 -72.4658 88° East 508 585 23,600 -2,460 Descending Boston Center
04:06PM 43.4339 -72.2572 87° East 501 577 21,100 -2,400 Descending Boston Center
04:07PM 43.4419 -72.0683 87° East 496 571 18,900 -2,100 Descending Boston Center
04:08PM 43.4431 -71.8881 89° East 486 559 17,000 -1,740 Descending Boston Center
04:09PM 43.4486 -71.7394 87° East 446 513 15,500 -1,500 Descending Boston Center
04:10PM 43.4475 -71.5592 90° East 435 501 14,000 -780 Descending Boston Center
04:11PM 43.4400 -71.4108 94° East 424 488 14,000 -360 Level Boston Center
04:12PM 43.4403 -71.2506 90° East 418 481 13,300 -1,200 Descending Boston Center
04:13PM 43.4781 -71.0781 73° East 428 493 11,600 -1,200 Descending Boston Center
04:14PM 43.5181 -70.9428 68° East 428 493 11,000 -900 Descending Boston Center
04:15PM 43.5575 -70.7869 71° East 401 461 9,800 -1,560 Descending Boston Center
04:16PM 43.5619 -70.6636 87° East 333 383 7,900 -1,920 Descending Boston Center
04:17PM 43.5622 -70.5489 90° East 306 352 6,000 -1,500 Descending Boston Center
04:18PM 43.5625 -70.4400 90° East 287 330 5,000 -540 Descending Boston Center
04:19PM 43.5647 -70.3397 88° East 271 312 5,000 -540 Level Boston Center
04:20PM 43.5650 -70.2394 90° East 258 297 4,000 -540 Descending Boston Center
04:21PM 43.5675 -70.1533 88° East 240 276 4,000 -120 Level Boston Center
04:22PM 43.6128 -70.1231 26° Northeast 185 213 3,800 -540 Descending Boston Center
04:23PM 43.6406 -70.1592 317° Northwest 123 142 3,000 -960 Descending Boston Center
04:24PM 43.6417 -70.2136 272° West 115 132 1,900 -1,080 Descending Boston Center
04:25PM 43.6425 -70.2625 271° West 129 148 900 -900 Descending Boston Center
04:26PM 43.6475 -70.3081 279° West 129 148 100 -420 Descending Boston Center
04:27PM 43.6464 -70.3542 268° West 129 148 100  Level Boston Center